createdAt,value
2023-01-09T00:00:54.057Z,62.87
2023-01-09T00:03:50.001Z,62.68
2023-01-09T00:06:46.007Z,62.87
2023-01-09T00:09:22.910Z,63.11
2023-01-09T00:12:20.438Z,63.19
2023-01-09T00:15:22.406Z,62.91
2023-01-09T00:18:12.089Z,62.94
2023-01-09T00:21:11.896Z,62.58
2023-01-09T00:24:36.042Z,62.73
2023-01-09T00:27:20.437Z,62.82
2023-01-09T00:30:22.317Z,62.55
2023-01-09T00:33:01.250Z,62.53
2023-01-09T00:35:43.320Z,62.51
2023-01-09T00:38:37.610Z,62.47
2023-01-09T00:41:28.326Z,62.51
2023-01-09T00:44:50.647Z,62.67
2023-01-09T00:48:33.808Z,62.71
2023-01-09T00:51:08.279Z,62.30
2023-01-09T00:53:58.434Z,62.40
2023-01-09T00:56:34.855Z,62.48
2023-01-09T00:59:22.994Z,62.11
2023-01-09T01:02:05.277Z,62.24
2023-01-09T01:05:15.453Z,61.84
2023-01-09T01:08:17.828Z,61.88
2023-01-09T01:11:15.087Z,61.61
2023-01-09T01:14:08.961Z,61.72
2023-01-09T01:16:50.962Z,61.65
2023-01-09T01:19:33.991Z,61.13
2023-01-09T01:22:02.810Z,60.67
2023-01-09T01:24:39.956Z,60.68
2023-01-09T01:27:41.511Z,60.48
2023-01-09T01:30:34.356Z,60.22
2023-01-09T01:33:08.468Z,60.17
2023-01-09T01:35:58.449Z,60.14
2023-01-09T01:38:43.314Z,60.28
2023-01-09T01:41:40.771Z,60.05
2023-01-09T01:45:44.490Z,59.95
2023-01-09T01:48:22.181Z,60.03
2023-01-09T01:51:29.701Z,59.76
2023-01-09T01:54:55.027Z,60.02
2023-01-09T01:57:54.494Z,60.19
2023-01-09T02:00:38.640Z,60.04
2023-01-09T02:03:35.713Z,59.66
2023-01-09T02:06:23.265Z,58.27
2023-01-09T02:09:07.098Z,58.51
2023-01-09T02:11:44.136Z,61.13
2023-01-09T02:14:34.938Z,65.18
2023-01-09T02:17:40.955Z,66.42
2023-01-09T02:21:13.441Z,64.58
2023-01-09T02:24:26.552Z,62.38
2023-01-09T02:28:14.676Z,62.58
2023-01-09T02:31:43.685Z,62.30
2023-01-09T02:35:05.584Z,62.07
2023-01-09T02:39:08.681Z,62.19
2023-01-09T02:42:32.671Z,61.95
2023-01-09T02:45:22.547Z,61.94
2023-01-09T02:48:30.347Z,61.66
2023-01-09T02:52:03.379Z,61.67
2023-01-09T02:55:17.947Z,61.87
2023-01-09T02:58:22.443Z,62.15
2023-01-09T03:01:35.278Z,61.45
2023-01-09T03:05:07.105Z,62.17
2023-01-09T03:08:27.154Z,61.48
2023-01-09T03:11:12.068Z,61.14
2023-01-09T03:13:54.471Z,61.05
2023-01-09T03:16:47.218Z,60.82
2023-01-09T03:19:21.676Z,60.01
2023-01-09T03:22:01.890Z,60.76
2023-01-09T03:25:04.723Z,60.89
2023-01-09T03:27:41.765Z,60.66
2023-01-09T03:30:44.439Z,61.00
2023-01-09T03:33:18.967Z,60.58
2023-01-09T03:36:14.546Z,60.53
2023-01-09T03:38:49.197Z,61.06
2023-01-09T03:41:23.212Z,61.05
2023-01-09T03:44:02.043Z,61.18
2023-01-09T03:46:36.025Z,61.37
2023-01-09T03:49:13.957Z,61.16
2023-01-09T03:51:55.732Z,61.20
2023-01-09T03:54:29.673Z,61.51
2023-01-09T03:57:46.984Z,61.40
2023-01-09T04:01:12.797Z,61.38
2023-01-09T04:03:57.066Z,61.79
2023-01-09T04:06:32.730Z,61.52
2023-01-09T04:09:42.353Z,61.77
2023-01-09T04:12:43.762Z,61.77
2023-01-09T04:15:45.554Z,61.36
2023-01-09T04:18:43.109Z,61.35
2023-01-09T04:21:42.339Z,61.69
2023-01-09T04:24:41.129Z,61.62
2023-01-09T04:27:32.189Z,61.40
2023-01-09T04:30:17.406Z,61.43
2023-01-09T04:33:11.040Z,61.25
2023-01-09T04:36:01.037Z,61.88
2023-01-09T04:38:48.189Z,62.11
2023-01-09T04:41:40.383Z,61.58
2023-01-09T04:44:28.537Z,60.91
2023-01-09T04:47:13.759Z,60.83
2023-01-09T04:49:53.132Z,61.02
2023-01-09T04:52:21.617Z,60.92
2023-01-09T04:55:07.854Z,60.77
2023-01-09T04:57:43.254Z,61.01
2023-01-09T05:00:31.273Z,61.10
2023-01-09T05:03:03.134Z,60.97
2023-01-09T05:05:53.527Z,61.22
2023-01-09T05:08:30.424Z,61.40
2023-01-09T05:11:21.015Z,60.91
2023-01-09T05:13:55.585Z,61.20
2023-01-09T05:16:27.211Z,61.23
2023-01-09T05:19:00.505Z,61.28
2023-01-09T05:21:32.152Z,61.29
2023-01-09T05:24:03.901Z,61.71
2023-01-09T05:26:37.423Z,61.83
2023-01-09T05:29:09.266Z,61.60
2023-01-09T05:31:46.907Z,61.51
2023-01-09T05:34:24.340Z,61.65
2023-01-09T05:36:52.957Z,61.54
2023-01-09T05:39:28.879Z,61.25
2023-01-09T05:42:02.629Z,61.27
2023-01-09T05:44:41.368Z,61.38
2023-01-09T05:47:12.240Z,61.56
2023-01-09T05:49:43.793Z,62.18
2023-01-09T05:52:15.135Z,62.34
2023-01-09T05:54:43.926Z,62.46
2023-01-09T05:57:17.633Z,62.71
2023-01-09T05:59:48.766Z,62.39
2023-01-09T06:02:27.403Z,62.46
2023-01-09T06:05:17.836Z,62.35
2023-01-09T06:07:48.820Z,62.01
2023-01-09T06:10:26.584Z,62.39
2023-01-09T06:13:00.830Z,62.48
2023-01-09T06:15:38.405Z,62.59
2023-01-09T06:18:27.589Z,62.45
2023-01-09T06:21:01.174Z,62.65
2023-01-09T06:23:42.117Z,63.04
2023-01-09T06:26:19.376Z,63.18
2023-01-09T06:28:48.035Z,63.08
2023-01-09T06:31:25.961Z,63.42
2023-01-09T06:34:02.667Z,63.27
2023-01-09T06:37:00.288Z,63.36
2023-01-09T06:39:41.073Z,63.34
2023-01-09T06:42:22.491Z,63.28
2023-01-09T06:44:54.140Z,63.52
2023-01-09T06:47:25.667Z,62.94
2023-01-09T06:50:12.976Z,63.35
2023-01-09T06:52:52.019Z,63.08
2023-01-09T06:55:40.335Z,63.07
2023-01-09T06:58:22.009Z,63.24
2023-01-09T07:01:12.364Z,63.46
2023-01-09T07:03:44.484Z,63.32
2023-01-09T07:06:20.320Z,63.35
2023-01-09T07:09:14.093Z,63.61
2023-01-09T07:12:14.914Z,63.74
2023-01-09T07:14:59.701Z,63.61
2023-01-09T07:17:41.592Z,63.29
2023-01-09T07:20:21.944Z,63.16
2023-01-09T07:23:20.018Z,63.09
2023-01-09T07:26:04.880Z,62.91
2023-01-09T07:28:45.036Z,62.73
2023-01-09T07:31:25.631Z,62.49
2023-01-09T07:34:09.335Z,62.24
2023-01-09T07:36:51.360Z,62.09
2023-01-09T07:39:38.078Z,62.06
2023-01-09T07:43:06.644Z,62.37
2023-01-09T07:45:40.534Z,62.01
2023-01-09T07:48:09.587Z,62.45
2023-01-09T07:50:49.112Z,62.09
2023-01-09T07:53:51.136Z,61.90
2023-01-09T07:56:45.323Z,61.86
2023-01-09T07:59:41.479Z,62.00
2023-01-09T08:02:27.788Z,61.84
2023-01-09T08:05:09.226Z,61.50
2023-01-09T08:08:02.861Z,61.48
2023-01-09T08:11:12.295Z,60.88
2023-01-09T08:14:15.738Z,60.24
2023-01-09T08:17:09.362Z,60.96
2023-01-09T08:20:27.319Z,60.98
2023-01-09T08:24:07.628Z,60.98
2023-01-09T08:27:31.589Z,60.39
2023-01-09T08:30:10.510Z,60.53
2023-01-09T08:33:10.638Z,59.73
2023-01-09T08:35:52.463Z,59.03
2023-01-09T08:38:22.953Z,62.31
2023-01-09T08:40:56.964Z,65.68
2023-01-09T08:43:50.327Z,64.61
2023-01-09T08:46:47.732Z,62.93
2023-01-09T08:49:22.138Z,61.25
2023-01-09T08:52:01.173Z,60.98
2023-01-09T08:54:58.490Z,61.11
2023-01-09T08:57:29.595Z,60.75
2023-01-09T09:00:00.888Z,60.44
2023-01-09T09:02:32.745Z,59.93
2023-01-09T09:05:20.774Z,58.86
2023-01-09T09:08:16.563Z,60.61
2023-01-09T09:11:02.073Z,63.80
2023-01-09T09:13:35.973Z,64.31
2023-01-09T09:16:37.567Z,61.79
2023-01-09T09:19:18.917Z,60.08
2023-01-09T09:22:05.733Z,59.98
2023-01-09T09:24:57.585Z,58.42
2023-01-09T09:27:36.424Z,60.13
2023-01-09T09:30:19.016Z,61.49
2023-01-09T09:33:06.631Z,64.74
2023-01-09T09:35:45.463Z,63.15
2023-01-09T09:38:20.030Z,60.14
2023-01-09T09:42:13.942Z,57.06
2023-01-09T09:45:36.591Z,58.39
2023-01-09T09:49:16.386Z,63.64
2023-01-09T09:52:53.409Z,61.98
2023-01-09T09:55:45.231Z,59.23
2023-01-09T09:59:28.682Z,57.77
2023-01-09T10:03:13.929Z,60.48
2023-01-09T10:06:01.065Z,65.35
2023-01-09T10:09:25.910Z,63.36
2023-01-09T10:12:37.347Z,60.81
2023-01-09T10:16:32.348Z,58.53
2023-01-09T10:19:51.765Z,59.41
2023-01-09T10:22:46.072Z,64.65
2023-01-09T10:25:51.525Z,62.28
2023-01-09T10:29:32.316Z,60.38
2023-01-09T10:32:28.100Z,59.08
2023-01-09T10:36:21.788Z,58.46
2023-01-09T10:39:00.702Z,64.95
2023-01-09T10:42:36.749Z,64.32
2023-01-09T10:45:32.676Z,62.46
2023-01-09T10:48:46.916Z,61.65
2023-01-09T10:52:15.943Z,61.10
2023-01-09T10:55:50.974Z,60.30
2023-01-09T10:58:40.231Z,59.41
2023-01-09T11:01:43.596Z,58.42
2023-01-09T11:04:43.546Z,62.44
2023-01-09T11:08:25.857Z,63.30
2023-01-09T11:12:05.131Z,61.78
2023-01-09T11:15:08.805Z,59.84
2023-01-09T11:17:42.403Z,59.83
2023-01-09T11:20:35.727Z,59.88
2023-01-09T11:23:36.503Z,59.75
2023-01-09T11:26:28.142Z,59.32
2023-01-09T11:29:46.212Z,61.13
2023-01-09T11:33:14.651Z,65.19
2023-01-09T11:36:16.523Z,63.88
2023-01-09T11:39:45.533Z,62.44
2023-01-09T11:43:34.071Z,62.38
2023-01-09T11:46:39.820Z,61.91
2023-01-09T11:49:51.395Z,61.47
2023-01-09T11:52:55.941Z,61.82
2023-01-09T11:55:58.141Z,61.93
2023-01-09T11:58:44.609Z,61.85
2023-01-09T12:02:48.943Z,61.27
2023-01-09T12:06:40.147Z,61.23
2023-01-09T12:10:01.205Z,61.76
2023-01-09T12:13:55.532Z,61.73
2023-01-09T12:18:23.337Z,61.85
2023-01-09T12:21:50.800Z,61.95
2023-01-09T12:25:17.145Z,62.14
2023-01-09T12:29:31.394Z,61.97
2023-01-09T12:33:26.670Z,62.66
2023-01-09T12:37:06.265Z,62.27
2023-01-09T12:41:22.191Z,62.65
2023-01-09T12:45:07.536Z,62.26
2023-01-09T12:48:11.658Z,61.86
2023-01-09T12:52:07.978Z,62.13
2023-01-09T12:55:42.803Z,61.95
2023-01-09T12:59:32.405Z,62.35
2023-01-09T13:03:27.926Z,62.24
2023-01-09T13:06:55.792Z,62.33
2023-01-09T13:10:01.880Z,62.41
2023-01-09T13:12:58.739Z,62.22
2023-01-09T13:15:56.046Z,61.80
2023-01-09T13:19:46.267Z,61.84
2023-01-09T13:22:50.475Z,61.88
2023-01-09T13:25:53.302Z,62.04
2023-01-09T13:28:43.703Z,61.81
2023-01-09T13:32:45.879Z,61.82
2023-01-09T13:35:44.328Z,61.93
2023-01-09T13:38:40.641Z,61.84
2023-01-09T13:41:34.956Z,62.11
2023-01-09T13:44:56.073Z,62.03
2023-01-09T13:47:56.786Z,61.91
2023-01-09T13:51:04.169Z,62.16
2023-01-09T13:54:02.349Z,61.94
2023-01-09T13:57:48.242Z,61.94
2023-01-09T14:01:36.185Z,61.78
2023-01-09T14:04:42.362Z,61.88
2023-01-09T14:07:24.436Z,61.80
2023-01-09T14:10:33.580Z,61.73
2023-01-09T14:13:40.051Z,62.49
2023-01-09T14:16:25.361Z,62.81
2023-01-09T14:19:31.075Z,62.96
2023-01-09T14:22:01.913Z,63.07
2023-01-09T14:24:42.349Z,63.20
2023-01-09T14:28:16.952Z,63.40
2023-01-09T14:31:37.967Z,63.79
2023-01-09T14:34:50.423Z,63.47
2023-01-09T14:37:33.995Z,63.73
2023-01-09T14:40:07.857Z,63.62
2023-01-09T14:43:11.442Z,63.77
2023-01-09T14:45:59.318Z,64.14
2023-01-09T14:48:33.021Z,64.18
2023-01-09T14:51:09.672Z,63.75
2023-01-09T14:54:00.887Z,63.60
2023-01-09T14:57:03.889Z,63.63
2023-01-09T14:59:43.105Z,63.63
2023-01-09T15:02:55.607Z,63.60
2023-01-09T15:05:31.737Z,63.57
2023-01-09T15:08:17.503Z,63.60
2023-01-09T15:11:33.353Z,63.78
2023-01-09T15:15:02.357Z,63.95
2023-01-09T15:17:44.042Z,63.77
2023-01-09T15:20:34.343Z,63.52
2023-01-09T15:23:32.206Z,63.63
2023-01-09T15:26:43.492Z,64.14
2023-01-09T15:29:26.817Z,63.95
2023-01-09T15:32:29.208Z,63.96
2023-01-09T15:35:19.964Z,63.78
2023-01-09T15:38:00.039Z,63.16
2023-01-09T15:40:48.121Z,63.02
2023-01-09T15:43:48.303Z,62.52
2023-01-09T15:46:25.385Z,62.24
2023-01-09T15:49:01.683Z,62.13
2023-01-09T15:52:12.117Z,61.99
2023-01-09T15:54:49.500Z,61.84
2023-01-09T15:58:05.698Z,61.66
2023-01-09T16:02:13.527Z,61.28
2023-01-09T16:04:56.443Z,61.50
2023-01-09T16:08:13.928Z,61.07
2023-01-09T16:11:19.088Z,61.01
2023-01-09T16:14:46.630Z,61.30
2023-01-09T16:18:18.271Z,61.21
2023-01-09T16:21:14.264Z,61.11
2023-01-09T16:23:59.331Z,61.05
2023-01-09T16:27:37.625Z,61.61
2023-01-09T16:30:36.215Z,62.40
2023-01-09T16:33:44.034Z,62.48
2023-01-09T16:36:57.375Z,62.51
2023-01-09T16:39:36.480Z,62.58
2023-01-09T16:42:56.226Z,62.64
2023-01-09T16:45:50.785Z,62.61
2023-01-09T16:48:24.964Z,62.54
2023-01-09T16:50:58.328Z,62.18
2023-01-09T16:53:32.059Z,61.89
2023-01-09T16:56:33.820Z,61.70
2023-01-09T16:59:20.733Z,61.01
2023-01-09T17:01:49.524Z,60.38
2023-01-09T17:04:26.818Z,59.69
2023-01-09T17:07:18.324Z,60.15
2023-01-09T17:09:49.159Z,60.32
2023-01-09T17:12:34.134Z,60.47
2023-01-09T17:15:02.819Z,60.31
2023-01-09T17:17:33.751Z,60.03
2023-01-09T17:20:19.197Z,60.18
2023-01-09T17:23:15.924Z,59.96
2023-01-09T17:26:06.057Z,59.53
2023-01-09T17:28:34.740Z,59.74
2023-01-09T17:31:12.772Z,59.72
2023-01-09T17:33:44.196Z,59.63
2023-01-09T17:36:33.653Z,62.06
2023-01-09T17:39:25.703Z,66.39
2023-01-09T17:42:09.744Z,65.05
2023-01-09T17:44:48.360Z,63.81
2023-01-09T17:47:26.772Z,62.98
2023-01-09T17:49:58.123Z,62.17
2023-01-09T17:52:34.589Z,60.97
2023-01-09T17:55:06.125Z,58.93
2023-01-09T17:57:37.633Z,60.61
2023-01-09T18:00:34.679Z,60.99
2023-01-09T18:03:07.955Z,64.64
2023-01-09T18:05:37.229Z,65.48
2023-01-09T18:08:15.026Z,62.59
2023-01-09T18:10:49.756Z,61.04
2023-01-09T18:13:33.742Z,60.51
2023-01-09T18:16:30.379Z,58.94
2023-01-09T18:19:09.058Z,57.33
2023-01-09T18:21:46.958Z,61.80
2023-01-09T18:24:20.456Z,64.41
2023-01-09T18:26:48.924Z,63.35
2023-01-09T18:29:36.750Z,61.67
2023-01-09T18:32:16.931Z,61.44
2023-01-09T18:34:48.581Z,60.19
2023-01-09T18:37:51.873Z,59.60
2023-01-09T18:40:38.480Z,57.86
2023-01-09T18:43:15.667Z,59.65
2023-01-09T18:45:52.243Z,60.16
2023-01-09T18:48:28.068Z,60.61
2023-01-09T18:51:22.705Z,64.76
2023-01-09T18:54:17.373Z,66.63
2023-01-09T18:57:08.792Z,64.79
2023-01-09T18:59:56.930Z,63.28
2023-01-09T19:02:36.488Z,62.71
2023-01-09T19:05:14.372Z,61.30
2023-01-09T19:08:14.901Z,60.56
2023-01-09T19:10:59.768Z,59.42
2023-01-09T19:13:35.700Z,57.22
2023-01-09T19:16:42.512Z,57.87
2023-01-09T19:19:27.055Z,60.70
2023-01-09T19:22:15.832Z,61.31
2023-01-09T19:24:49.511Z,62.31
2023-01-09T19:27:21.065Z,65.65
2023-01-09T19:29:54.681Z,67.83
2023-01-09T19:32:39.530Z,66.54
2023-01-09T19:35:31.012Z,65.24
2023-01-09T19:38:15.397Z,63.59
2023-01-09T19:40:57.394Z,62.54
2023-01-09T19:43:49.666Z,61.15
2023-01-09T19:46:35.560Z,61.01
2023-01-09T19:49:38.042Z,60.44
2023-01-09T19:52:22.356Z,60.20
2023-01-09T19:55:20.422Z,60.04
2023-01-09T19:58:30.084Z,59.36
2023-01-09T20:01:24.564Z,57.83
2023-01-09T20:04:23.455Z,59.72
2023-01-09T20:07:12.141Z,59.39
2023-01-09T20:10:00.176Z,59.79
2023-01-09T20:12:51.826Z,63.86
2023-01-09T20:15:23.215Z,68.17
2023-01-09T20:17:57.020Z,67.27
2023-01-09T20:20:25.520Z,65.50
2023-01-09T20:23:34.538Z,64.11
2023-01-09T20:26:10.890Z,63.25
2023-01-09T20:29:01.904Z,62.59
2023-01-09T20:31:40.905Z,62.34
2023-01-09T20:34:15.724Z,61.92
2023-01-09T20:37:15.814Z,61.25
2023-01-09T20:39:44.769Z,61.10
2023-01-09T20:42:34.364Z,60.98
2023-01-09T20:45:25.368Z,61.05
2023-01-09T20:47:59.772Z,60.59
2023-01-09T20:50:33.164Z,60.57
2023-01-09T20:53:07.155Z,60.56
2023-01-09T20:55:47.498Z,60.32
2023-01-09T20:58:18.243Z,59.93
2023-01-09T21:00:46.787Z,60.28
2023-01-09T21:03:20.450Z,60.09
2023-01-09T21:05:51.758Z,60.32
2023-01-09T21:08:24.767Z,60.56
2023-01-09T21:10:58.793Z,60.65
2023-01-09T21:13:39.662Z,60.71
2023-01-09T21:16:25.180Z,60.86
2023-01-09T21:18:54.543Z,60.95
2023-01-09T21:21:34.676Z,61.45
2023-01-09T21:24:10.757Z,61.34
2023-01-09T21:26:41.696Z,61.46
2023-01-09T21:29:17.049Z,61.47
2023-01-09T21:31:52.043Z,61.12
2023-01-09T21:34:20.979Z,60.79
2023-01-09T21:36:49.495Z,60.56
2023-01-09T21:39:19.810Z,59.69
2023-01-09T21:42:11.671Z,57.50
2023-01-09T21:45:15.289Z,57.87
2023-01-09T21:47:49.099Z,63.67
2023-01-09T21:50:20.427Z,67.12
2023-01-09T21:52:51.689Z,66.53
2023-01-09T21:55:27.333Z,65.22
2023-01-09T21:57:58.478Z,64.26
2023-01-09T22:00:34.298Z,64.00
2023-01-09T22:03:05.798Z,63.25
2023-01-09T22:05:54.266Z,63.56
2023-01-09T22:08:31.927Z,63.27
2023-01-09T22:11:30.204Z,62.95
2023-01-09T22:14:01.416Z,62.59
2023-01-09T22:16:35.293Z,62.44
2023-01-09T22:19:09.445Z,62.33
2023-01-09T22:21:38.278Z,62.20
2023-01-09T22:24:23.174Z,61.98
2023-01-09T22:27:02.663Z,62.41
2023-01-09T22:29:39.541Z,62.36
2023-01-09T22:32:07.992Z,61.98
2023-01-09T22:34:41.837Z,61.98
2023-01-09T22:37:12.953Z,61.80
2023-01-09T22:39:41.749Z,61.81
2023-01-09T22:43:28.877Z,61.58
2023-01-09T22:46:20.717Z,61.28
2023-01-09T22:49:01.255Z,61.12
2023-01-09T22:51:35.577Z,60.89
2023-01-09T22:54:07.235Z,60.64
2023-01-09T22:56:44.222Z,60.08
2023-01-09T22:59:17.539Z,59.86
2023-01-09T23:01:51.648Z,59.84
2023-01-09T23:04:34.665Z,60.11
2023-01-09T23:07:22.374Z,60.39
2023-01-09T23:10:17.182Z,60.42
2023-01-09T23:13:15.813Z,60.33
2023-01-09T23:16:13.553Z,60.24
2023-01-09T23:19:05.277Z,59.49
2023-01-09T23:21:48.000Z,58.48
2023-01-09T23:24:24.501Z,60.04
2023-01-09T23:26:52.756Z,59.30
2023-01-09T23:29:39.328Z,60.58
2023-01-09T23:32:14.432Z,60.45
2023-01-09T23:34:55.821Z,64.08
2023-01-09T23:37:52.714Z,71.23
2023-01-09T23:40:42.353Z,69.66
2023-01-09T23:43:39.602Z,67.52
2023-01-09T23:47:11.769Z,66.03
2023-01-09T23:50:18.835Z,64.39
2023-01-09T23:53:05.055Z,63.24
2023-01-09T23:55:48.558Z,62.34
2023-01-09T23:58:34.790Z,61.52
